Time;durP1;ratioP1;P1;durP2;ratioP2;P2;SDS_P1;SDS_P2;PMS_P1;PMS_P2;Temp;Humidity;BMP_temperature;BMP_pressure;BME280_temperature;BME280_humidity;BME280_pressure;Samples;Min_cycle;Max_cycle;Signal;HPM_P1;HPM_P2
2022/03/04 00:00:43;;;;;;;64.57;28.23;;;1.20;99.90;;;;;;2057087;28;20053;-76
2022/03/04 00:01:46;;;;;;;66.20;29.00;;;1.20;99.90;;;;;;2067429;28;20045;-80
2022/03/04 00:02:47;;;;;;;63.72;28.77;;;1.20;99.90;;;;;;2070024;28;20592;-76
2022/03/04 00:03:48;;;;;;;73.53;30.38;;;1.30;99.90;;;;;;2064169;28;20034;-76
2022/03/04 00:04:48;;;;;;;75.25;31.25;;;1.30;99.90;;;;;;2063676;28;20030;-75
2022/03/04 00:05:49;;;;;;;71.10;30.33;;;1.20;99.90;;;;;;2057134;28;20105;-76
2022/03/04 00:06:50;;;;;;;72.63;30.25;;;1.20;99.90;;;;;;2060165;28;20033;-75
2022/03/04 00:07:50;;;;;;;65.80;28.88;;;1.20;99.90;;;;;;2058858;28;20449;-75
2022/03/04 00:08:51;;;;;;;67.13;29.42;;;1.30;99.90;;;;;;2061481;28;20390;-76
2022/03/04 00:09:52;;;;;;;59.35;27.90;;;1.30;99.90;;;;;;2062696;28;20026;-74
2022/03/04 00:10:52;;;;;;;64.43;28.30;;;1.30;99.90;;;;;;2063858;28;20034;-75
2022/03/04 00:11:53;;;;;;;72.10;30.45;;;1.30;99.90;;;;;;2061489;28;20058;-74
2022/03/04 00:12:54;;;;;;;69.63;29.90;;;1.30;99.90;;;;;;2058790;28;20121;-76
2022/03/04 00:13:55;;;;;;;65.63;29.75;;;1.30;99.90;;;;;;2071262;28;20505;-76
2022/03/04 00:14:56;;;;;;;65.57;29.08;;;1.30;99.90;;;;;;2069216;28;20089;-75
2022/03/04 00:15:56;;;;;;;66.28;29.17;;;1.30;99.90;;;;;;2068667;28;20512;-75
2022/03/04 00:16:57;;;;;;;66.25;28.95;;;1.30;99.90;;;;;;2064853;28;20072;-75
2022/03/04 00:17:58;;;;;;;64.80;28.77;;;1.20;99.90;;;;;;2059250;28;20127;-75
2022/03/04 00:19:10;;;;;;;67.82;30.27;;;1.30;99.90;;;;;;2061852;28;20534;-75
2022/03/04 00:20:11;;;;;;;69.15;29.10;;;1.20;99.90;;;;;;2060253;28;20394;-75
2022/03/04 00:21:11;;;;;;;64.85;28.85;;;1.30;99.90;;;;;;2069514;28;20032;-75
2022/03/04 00:22:14;;;;;;;66.30;28.88;;;1.30;99.90;;;;;;2068294;28;20037;-74
2022/03/04 00:23:15;;;;;;;61.65;28.30;;;1.30;99.90;;;;;;2059209;28;20105;-75
2022/03/04 00:24:18;;;;;;;66.30;28.58;;;1.30;99.90;;;;;;2058777;28;20023;-74
2022/03/04 00:25:19;;;;;;;77.72;31.13;;;1.30;99.90;;;;;;2066960;28;20100;-74
2022/03/04 00:26:20;;;;;;;66.70;29.08;;;1.30;99.90;;;;;;2063693;28;20031;-75
2022/03/04 00:27:21;;;;;;;69.60;30.15;;;1.30;99.90;;;;;;2058778;28;20022;-75
2022/03/04 00:28:21;;;;;;;66.93;30.27;;;1.30;99.90;;;;;;2061067;28;20034;-74
2022/03/04 00:29:23;;;;;;;73.15;30.20;;;1.30;99.90;;;;;;2059330;28;20677;-73
2022/03/04 00:30:24;;;;;;;70.32;29.70;;;1.30;99.90;;;;;;2061193;28;20030;-75
2022/03/04 00:31:24;;;;;;;67.38;29.85;;;1.20;99.90;;;;;;2053130;28;20114;-75
2022/03/04 00:32:25;;;;;;;66.90;29.98;;;1.20;99.90;;;;;;2059301;28;20027;-75
2022/03/04 00:33:26;;;;;;;68.50;30.13;;;1.30;99.90;;;;;;2061600;28;20030;-75
2022/03/04 00:34:27;;;;;;;69.57;30.20;;;1.30;99.90;;;;;;2061492;28;20023;-74
2022/03/04 00:35:28;;;;;;;69.05;29.75;;;1.30;99.90;;;;;;2047856;28;20023;-76
2022/03/04 00:36:29;;;;;;;68.22;29.77;;;1.20;99.90;;;;;;2044939;29;20027;-76
2022/03/04 00:37:29;;;;;;;68.80;30.10;;;1.20;99.90;;;;;;2056800;28;20030;-75
2022/03/04 00:38:30;;;;;;;67.93;30.65;;;1.20;99.90;;;;;;2064518;28;20022;-75
2022/03/04 00:39:30;;;;;;;73.50;30.80;;;1.20;99.90;;;;;;2062425;28;20026;-76
2022/03/04 00:40:31;;;;;;;69.95;30.63;;;1.20;99.90;;;;;;2056416;28;20566;-74
2022/03/04 00:41:31;;;;;;;68.72;29.60;;;1.20;99.90;;;;;;2064305;28;20441;-76
2022/03/04 00:42:32;;;;;;;71.28;30.38;;;1.20;99.90;;;;;;2066949;28;20052;-75
2022/03/04 00:43:33;;;;;;;68.03;29.65;;;1.20;99.90;;;;;;2061333;28;20029;-74
2022/03/04 00:44:34;;;;;;;69.43;30.85;;;1.20;99.90;;;;;;2067860;28;20022;-75
2022/03/04 00:45:35;;;;;;;67.10;30.55;;;1.20;99.90;;;;;;2068677;28;20061;-77
2022/03/04 00:46:36;;;;;;;67.90;29.55;;;1.20;99.90;;;;;;2064340;28;20038;-76
2022/03/04 00:47:37;;;;;;;70.30;30.20;;;1.20;99.90;;;;;;2062273;28;20027;-76
2022/03/04 00:48:38;;;;;;;66.28;29.42;;;1.20;99.90;;;;;;2070176;28;20054;-77
2022/03/04 00:49:39;;;;;;;64.57;29.27;;;1.20;99.90;;;;;;2070047;28;20097;-76
2022/03/04 00:50:40;;;;;;;64.50;28.88;;;1.30;99.90;;;;;;2060018;28;20027;-75
2022/03/04 00:51:40;;;;;;;60.30;27.67;;;1.30;99.90;;;;;;2064779;28;20098;-76
2022/03/04 00:52:41;;;;;;;67.70;29.33;;;1.30;99.90;;;;;;2060126;28;20026;-76
2022/03/04 00:53:44;;;;;;;68.32;29.58;;;1.30;99.90;;;;;;2057476;28;20034;-75
2022/03/04 00:54:45;;;;;;;68.05;29.90;;;1.20;99.90;;;;;;2066944;28;20030;-74
2022/03/04 00:55:45;;;;;;;67.53;29.80;;;1.30;99.90;;;;;;2072107;28;20014;-75
2022/03/04 00:56:46;;;;;;;71.50;31.20;;;1.30;99.90;;;;;;2059241;28;20461;-73
2022/03/04 00:57:47;;;;;;;67.05;30.30;;;1.30;99.90;;;;;;2058608;28;20098;-75
2022/03/04 00:58:47;;;;;;;60.25;28.20;;;1.30;99.90;;;;;;2067282;28;20050;-74
2022/03/04 00:59:48;;;;;;;68.60;30.67;;;1.30;99.90;;;;;;2064757;28;20058;-75
2022/03/04 01:00:48;;;;;;;67.47;30.08;;;1.30;99.90;;;;;;2061039;28;20030;-73
2022/03/04 01:01:49;;;;;;;66.25;29.40;;;1.30;99.90;;;;;;2064953;28;20031;-72
2022/03/04 01:02:50;;;;;;;69.15;30.63;;;1.30;99.90;;;;;;2068634;28;20029;-75
2022/03/04 01:03:50;;;;;;;69.63;30.90;;;1.20;99.90;;;;;;2057693;28;20071;-74
2022/03/04 01:04:51;;;;;;;72.35;30.95;;;1.20;99.90;;;;;;2062487;28;20506;-74
2022/03/04 01:05:52;;;;;;;71.38;30.40;;;1.20;99.90;;;;;;2069712;28;20025;-74
2022/03/04 01:06:52;;;;;;;69.07;29.88;;;1.20;99.90;;;;;;2072609;28;20385;-74
2022/03/04 01:07:53;;;;;;;67.85;30.40;;;1.20;99.90;;;;;;2064469;28;20048;-74
2022/03/04 01:08:54;;;;;;;67.35;30.70;;;1.20;99.90;;;;;;2065260;28;20038;-74
2022/03/04 01:09:54;;;;;;;68.47;31.10;;;1.20;99.90;;;;;;2064914;28;20049;-75
2022/03/04 01:10:55;;;;;;;67.35;30.20;;;1.20;99.90;;;;;;2048285;28;20049;-76
2022/03/04 01:11:56;;;;;;;66.93;30.60;;;1.20;99.90;;;;;;2056118;28;20132;-75
2022/03/04 01:12:56;;;;;;;64.43;28.85;;;1.20;99.90;;;;;;2072682;28;20056;-74
2022/03/04 01:13:57;;;;;;;70.07;30.92;;;1.20;99.90;;;;;;2072866;28;20112;-75
2022/03/04 01:14:58;;;;;;;66.78;30.08;;;1.20;99.90;;;;;;2065797;28;20065;-75
2022/03/04 01:15:59;;;;;;;71.13;31.38;;;1.20;99.90;;;;;;2066983;28;20027;-75
2022/03/04 01:16:59;;;;;;;63.05;29.00;;;1.20;99.90;;;;;;2067291;28;20022;-75
2022/03/04 01:18:00;;;;;;;60.97;28.58;;;1.20;99.90;;;;;;2066294;28;20054;-75
2022/03/04 01:19:01;;;;;;;68.93;30.60;;;1.20;99.90;;;;;;2058463;28;20430;-75
2022/03/04 01:20:04;;;;;;;68.55;30.58;;;1.30;99.90;;;;;;2057704;28;20027;-74
2022/03/04 01:21:05;;;;;;;70.88;30.58;;;1.20;99.90;;;;;;2065922;28;20027;-75
2022/03/04 01:22:06;;;;;;;68.95;30.08;;;1.30;99.90;;;;;;2074123;28;20049;-75
2022/03/04 01:23:07;;;;;;;70.03;31.42;;;1.30;99.90;;;;;;2065580;28;20045;-74
2022/03/04 01:24:08;;;;;;;72.35;31.67;;;1.30;99.90;;;;;;2057625;28;20026;-73
2022/03/04 01:25:09;;;;;;;69.90;30.70;;;1.30;99.90;;;;;;2065792;28;20022;-76
2022/03/04 01:26:10;;;;;;;65.47;29.98;;;1.30;99.90;;;;;;2073973;28;20026;-74
2022/03/04 01:27:11;;;;;;;64.22;29.67;;;1.30;99.90;;;;;;2065792;28;20018;-74
2022/03/04 01:28:11;;;;;;;68.15;30.02;;;1.20;99.90;;;;;;2065539;28;20026;-75
2022/03/04 01:29:12;;;;;;;72.18;31.83;;;1.20;99.90;;;;;;2066698;28;20501;-75
2022/03/04 01:30:14;;;;;;;74.65;32.10;;;1.20;99.90;;;;;;2066467;28;20018;-73
2022/03/04 01:31:15;;;;;;;68.35;31.60;;;1.20;99.90;;;;;;2066583;28;20022;-73
2022/03/04 01:32:16;;;;;;;75.40;32.40;;;1.20;99.90;;;;;;2073944;28;20030;-75
2022/03/04 01:33:17;;;;;;;71.90;31.95;;;1.10;99.90;;;;;;2073781;28;20476;-74
2022/03/04 01:34:17;;;;;;;70.20;31.17;;;1.10;99.90;;;;;;2073839;28;20021;-73
2022/03/04 01:35:18;;;;;;;74.80;32.42;;;1.10;99.90;;;;;;2073670;28;20034;-74
2022/03/04 01:36:19;;;;;;;74.35;32.05;;;1.10;99.90;;;;;;2073589;28;20146;-74
2022/03/04 01:37:19;;;;;;;68.30;30.77;;;1.20;99.90;;;;;;2065968;28;20030;-73
2022/03/04 01:38:20;;;;;;;67.05;31.35;;;1.20;99.90;;;;;;2065076;28;20149;-75
2022/03/04 01:39:20;;;;;;;70.60;31.42;;;1.20;99.90;;;;;;2057612;28;20030;-76
2022/03/04 01:40:21;;;;;;;72.50;32.20;;;1.20;99.90;;;;;;2065759;28;20035;-75
2022/03/04 01:41:22;;;;;;;68.47;31.40;;;1.20;99.90;;;;;;2065654;28;20121;-74
2022/03/04 01:42:23;;;;;;;72.47;32.53;;;1.10;99.90;;;;;;2073856;28;20034;-77
2022/03/04 01:43:24;;;;;;;71.38;32.10;;;1.10;99.90;;;;;;2073734;28;20029;-76
2022/03/04 01:44:24;;;;;;;74.30;32.15;;;1.20;99.90;;;;;;2073743;28;20034;-76
2022/03/04 01:45:25;;;;;;;73.53;32.45;;;1.10;99.90;;;;;;2073759;28;20054;-75
2022/03/04 01:46:29;;;;;;;68.00;31.25;;;1.10;99.90;;;;;;2057791;28;20438;-76
2022/03/04 01:47:29;;;;;;;72.57;31.88;;;1.10;99.90;;;;;;2058037;28;20039;-75
2022/03/04 01:48:30;;;;;;;71.63;31.75;;;1.10;99.90;;;;;;2065462;28;20027;-75
2022/03/04 01:49:31;;;;;;;71.50;31.73;;;1.10;99.90;;;;;;2066258;28;20069;-76
2022/03/04 01:50:32;;;;;;;73.85;32.60;;;1.20;99.90;;;;;;2065471;28;20057;-75
2022/03/04 01:51:33;;;;;;;76.05;33.20;;;1.10;99.90;;;;;;2058232;28;20565;-74
2022/03/04 01:52:33;;;;;;;67.07;30.50;;;1.20;99.90;;;;;;2065894;28;20444;-75
2022/03/04 01:53:34;;;;;;;70.40;31.63;;;1.10;99.90;;;;;;2065686;28;20026;-73
2022/03/04 01:54:35;;;;;;;71.85;31.40;;;1.10;99.90;;;;;;2057035;28;20026;-74
2022/03/04 01:55:35;;;;;;;71.03;32.13;;;1.20;99.90;;;;;;2065328;28;20027;-73
2022/03/04 01:56:36;;;;;;;74.35;33.20;;;1.20;99.90;;;;;;2065433;28;20620;-74
2022/03/04 01:57:37;;;;;;;74.28;33.38;;;1.10;99.90;;;;;;2065257;28;20238;-74
2022/03/04 01:58:38;;;;;;;71.57;31.77;;;1.10;99.90;;;;;;2066238;28;20034;-75
2022/03/04 01:59:39;;;;;;;75.70;33.03;;;1.10;99.90;;;;;;2066601;28;20029;-74
2022/03/04 02:00:40;;;;;;;76.65;33.38;;;1.10;99.90;;;;;;2066233;28;20060;-75
2022/03/04 02:01:43;;;;;;;70.82;33.00;;;1.10;99.90;;;;;;2066592;28;20106;-75
2022/03/04 02:02:44;;;;;;;71.80;32.30;;;1.10;99.90;;;;;;2066393;28;20483;-75
2022/03/04 02:03:45;;;;;;;67.93;31.48;;;1.10;99.90;;;;;;2073780;28;20065;-75
2022/03/04 02:04:49;;;;;;;69.45;31.23;;;1.20;99.90;;;;;;2073750;28;20033;-72
2022/03/04 02:05:49;;;;;;;73.28;32.85;;;1.20;99.90;;;;;;2065946;28;20046;-77
2022/03/04 02:06:51;;;;;;;64.45;30.25;;;1.20;99.90;;;;;;2066132;28;20034;-73
2022/03/04 02:07:52;;;;;;;66.50;31.55;;;1.20;99.90;;;;;;2065922;28;20026;-76
2022/03/04 02:08:53;;;;;;;71.00;31.30;;;1.20;99.90;;;;;;2066117;28;20045;-75
2022/03/04 02:09:53;;;;;;;69.32;31.40;;;1.20;99.90;;;;;;2066334;28;20398;-75
2022/03/04 02:10:54;;;;;;;68.03;31.77;;;1.20;99.90;;;;;;2066404;28;20056;-74
2022/03/04 02:11:55;;;;;;;67.47;31.92;;;1.20;99.90;;;;;;2066190;28;20026;-75
2022/03/04 02:12:55;;;;;;;71.13;32.33;;;1.20;99.90;;;;;;2066136;28;20057;-74
2022/03/04 02:13:56;;;;;;;72.82;33.15;;;1.20;99.90;;;;;;2066006;28;20019;-75
2022/03/04 02:14:56;;;;;;;73.82;33.13;;;1.20;99.90;;;;;;2066188;28;20031;-73
2022/03/04 02:15:57;;;;;;;71.57;32.67;;;1.20;99.90;;;;;;2066111;28;20177;-75
2022/03/04 02:16:58;;;;;;;74.13;34.08;;;1.20;99.90;;;;;;2065851;28;20035;-72
2022/03/04 02:17:58;;;;;;;74.07;33.28;;;1.20;99.90;;;;;;2064777;28;20126;-75
2022/03/04 02:18:59;;;;;;;74.03;32.95;;;1.10;99.90;;;;;;2065236;28;20485;-75
2022/03/04 02:20:00;;;;;;;72.38;32.88;;;1.20;99.90;;;;;;2065736;28;20042;-74
2022/03/04 02:21:02;;;;;;;71.68;33.72;;;1.20;99.90;;;;;;2065982;28;20026;-75
2022/03/04 02:22:05;;;;;;;73.40;34.00;;;1.20;99.90;;;;;;2066095;28;20034;-75
2022/03/04 02:23:05;;;;;;;75.47;33.33;;;1.10;99.90;;;;;;2065860;28;20030;-73
2022/03/04 02:24:06;;;;;;;82.72;35.53;;;1.10;99.90;;;;;;2073269;28;20044;-73
2022/03/04 02:25:07;;;;;;;78.18;34.78;;;1.10;99.90;;;;;;2073583;28;20022;-75
2022/03/04 02:26:08;;;;;;;75.53;34.30;;;1.10;99.90;;;;;;2066035;28;20092;-75
2022/03/04 02:27:08;;;;;;;73.43;32.72;;;1.10;99.90;;;;;;2065577;28;20497;-74
2022/03/04 02:28:09;;;;;;;74.95;34.30;;;1.10;99.90;;;;;;2065581;28;20085;-74
2022/03/04 02:29:11;;;;;;;74.38;34.67;;;1.20;99.90;;;;;;2065862;28;20253;-74
2022/03/04 02:30:11;;;;;;;69.03;31.70;;;1.20;99.90;;;;;;2074041;28;20536;-75
2022/03/04 02:31:19;;;;;;;73.07;33.13;;;1.20;99.90;;;;;;2074200;28;20069;-76
2022/03/04 02:32:20;;;;;;;68.43;30.98;;;1.20;99.90;;;;;;2065654;28;20034;-73
2022/03/04 02:33:20;;;;;;;71.15;32.40;;;1.20;99.90;;;;;;2066238;28;20026;-74
2022/03/04 02:34:21;;;;;;;73.20;32.38;;;1.20;99.90;;;;;;2065590;28;20096;-76
2022/03/04 02:35:22;;;;;;;73.07;32.97;;;1.20;99.90;;;;;;2057442;28;20073;-75
2022/03/04 02:36:23;;;;;;;72.75;32.35;;;1.20;99.90;;;;;;2067764;28;20073;-76
2022/03/04 02:37:23;;;;;;;70.43;32.00;;;1.20;99.90;;;;;;2068510;28;20022;-76
2022/03/04 02:38:24;;;;;;;64.35;30.92;;;1.30;99.90;;;;;;2067136;28;20027;-76
2022/03/04 02:39:25;;;;;;;71.05;31.63;;;1.20;99.90;;;;;;2066231;28;20047;-75
2022/03/04 02:40:26;;;;;;;68.68;31.40;;;1.30;99.90;;;;;;2066331;28;20041;-75
2022/03/04 02:41:27;;;;;;;65.10;30.92;;;1.30;99.90;;;;;;2065418;28;20038;-74
2022/03/04 02:42:27;;;;;;;63.67;30.55;;;1.30;99.90;;;;;;2065596;28;20038;-75
2022/03/04 02:43:28;;;;;;;76.53;33.10;;;1.30;99.90;;;;;;2065514;28;20508;-74
2022/03/04 02:44:29;;;;;;;73.97;34.33;;;1.20;99.90;;;;;;2065433;28;20035;-74
2022/03/04 02:45:30;;;;;;;73.78;32.95;;;1.20;99.90;;;;;;2065662;28;20034;-75
2022/03/04 02:46:32;;;;;;;70.32;32.53;;;1.20;99.90;;;;;;2075032;28;20497;-75
2022/03/04 02:47:33;;;;;;;70.43;32.65;;;1.20;99.90;;;;;;2066412;28;20056;-74
2022/03/04 02:48:33;;;;;;;76.88;34.55;;;1.20;99.90;;;;;;2067235;28;20041;-74
2022/03/04 02:49:34;;;;;;;75.25;33.92;;;1.10;99.90;;;;;;2066568;28;20034;-75
2022/03/04 02:50:34;;;;;;;75.43;34.08;;;1.10;99.90;;;;;;2065804;28;20505;-75
2022/03/04 02:51:38;;;;;;;69.45;31.70;;;1.10;99.90;;;;;;2065837;28;20034;-75
2022/03/04 02:52:39;;;;;;;70.78;32.00;;;1.10;99.90;;;;;;2065791;28;20525;-74
2022/03/04 02:53:40;;;;;;;74.53;32.58;;;1.20;99.90;;;;;;2065292;28;20022;-74
2022/03/04 02:54:40;;;;;;;76.63;33.58;;;1.20;99.90;;;;;;2064888;28;20741;-75
2022/03/04 02:55:41;;;;;;;74.10;34.15;;;1.20;99.90;;;;;;2065487;28;20049;-74
2022/03/04 02:56:41;;;;;;;78.50;34.60;;;1.20;99.90;;;;;;2073219;28;20057;-75
2022/03/04 02:57:45;;;;;;;75.30;33.45;;;1.10;99.90;;;;;;2072627;28;20076;-75
2022/03/04 02:58:46;;;;;;;72.85;33.65;;;1.10;99.90;;;;;;2065501;28;20023;-75
2022/03/04 02:59:47;;;;;;;77.07;33.80;;;1.10;99.90;;;;;;2065651;28;20064;-74
2022/03/04 03:00:48;;;;;;;75.32;33.22;;;1.20;99.90;;;;;;2066013;28;20078;-74
2022/03/04 03:01:48;;;;;;;80.53;35.50;;;1.20;99.90;;;;;;2065988;28;20041;-75
2022/03/04 03:02:49;;;;;;;73.22;32.78;;;1.20;99.90;;;;;;2065497;28;20061;-75
2022/03/04 03:03:50;;;;;;;73.43;33.40;;;1.20;99.90;;;;;;2065696;28;20026;-75
2022/03/04 03:04:53;;;;;;;76.03;34.42;;;1.30;99.90;;;;;;2065033;28;20830;-76
2022/03/04 03:05:53;;;;;;;75.47;32.53;;;1.30;99.90;;;;;;2065789;28;20038;-76
2022/03/04 03:06:54;;;;;;;80.75;33.92;;;1.30;99.90;;;;;;2065006;28;20030;-75
2022/03/04 03:07:55;;;;;;;73.47;33.13;;;1.30;99.90;;;;;;2048855;28;20876;-75
2022/03/04 03:08:55;;;;;;;73.85;33.30;;;1.30;99.90;;;;;;2057544;28;20035;-75
2022/03/04 03:09:56;;;;;;;71.57;32.63;;;1.30;99.90;;;;;;2073542;28;20052;-74
2022/03/04 03:10:57;;;;;;;74.88;33.50;;;1.30;99.90;;;;;;2073450;28;20096;-74
2022/03/04 03:11:58;;;;;;;71.85;32.55;;;1.30;99.90;;;;;;2073754;28;20045;-73
2022/03/04 03:12:59;;;;;;;70.45;31.30;;;1.30;99.90;;;;;;2066010;28;20067;-74
2022/03/04 03:13:59;;;;;;;76.78;34.05;;;1.30;99.90;;;;;;2065711;28;20034;-75
2022/03/04 03:15:00;;;;;;;76.22;33.55;;;1.30;99.90;;;;;;2073996;28;20030;-74
2022/03/04 03:16:00;;;;;;;74.70;33.47;;;1.30;99.90;;;;;;2065977;28;20030;-74
2022/03/04 03:17:01;;;;;;;74.82;34.25;;;1.30;99.90;;;;;;2066062;28;20026;-74
2022/03/04 03:18:02;;;;;;;75.60;34.00;;;1.30;99.90;;;;;;2066032;28;20497;-76
2022/03/04 03:19:03;;;;;;;82.80;34.83;;;1.30;99.90;;;;;;2073977;28;20036;-73
2022/03/04 03:20:06;;;;;;;82.00;34.15;;;1.20;99.90;;;;;;2065257;28;20612;-73
2022/03/04 03:21:07;;;;;;;81.45;34.60;;;1.30;99.90;;;;;;2065469;28;20061;-75
2022/03/04 03:22:08;;;;;;;78.78;35.08;;;1.20;99.90;;;;;;2065431;28;20549;-73
2022/03/04 03:23:10;;;;;;;75.53;33.20;;;1.20;99.90;;;;;;2065649;28;20497;-74
2022/03/04 03:24:10;;;;;;;72.80;33.05;;;1.20;99.90;;;;;;2072790;28;20025;-74
2022/03/04 03:25:12;;;;;;;77.00;33.88;;;1.20;99.90;;;;;;2073375;28;20072;-73
2022/03/04 03:26:12;;;;;;;85.13;36.58;;;1.20;99.90;;;;;;2065373;28;20498;-73
2022/03/04 03:27:14;;;;;;;78.45;34.72;;;1.20;99.90;;;;;;2073317;28;20049;-73
2022/03/04 03:28:14;;;;;;;77.20;34.70;;;1.30;99.90;;;;;;2073078;28;20034;-75
2022/03/04 03:29:15;;;;;;;83.53;35.00;;;1.30;99.90;;;;;;2073491;28;20133;-75
2022/03/04 03:30:15;;;;;;;78.95;34.80;;;1.20;99.90;;;;;;2073111;28;20061;-75
2022/03/04 03:31:16;;;;;;;80.53;35.53;;;1.20;99.90;;;;;;2065633;28;20034;-74
2022/03/04 03:32:17;;;;;;;81.03;35.53;;;1.30;99.90;;;;;;2066118;28;20022;-76
2022/03/04 03:33:17;;;;;;;77.88;34.05;;;1.30;99.90;;;;;;2065542;28;20039;-75
2022/03/04 03:34:18;;;;;;;83.65;35.05;;;1.20;99.90;;;;;;2065249;28;20069;-75
2022/03/04 03:35:19;;;;;;;87.63;36.05;;;1.30;99.90;;;;;;2065446;28;20405;-76
2022/03/04 03:36:21;;;;;;;82.55;36.17;;;1.30;99.90;;;;;;2065334;28;20045;-75
2022/03/04 03:37:22;;;;;;;79.80;35.25;;;1.20;99.90;;;;;;2064962;28;20455;-74
2022/03/04 03:38:23;;;;;;;81.65;35.63;;;1.20;99.90;;;;;;2064814;28;20096;-76
2022/03/04 03:39:24;;;;;;;87.95;36.40;;;1.30;99.90;;;;;;2065171;28;20030;-74
2022/03/04 03:40:24;;;;;;;85.78;36.05;;;1.30;99.90;;;;;;2065700;28;20030;-76
2022/03/04 03:41:25;;;;;;;84.68;37.40;;;1.20;99.90;;;;;;2064712;28;20054;-75
2022/03/04 03:42:26;;;;;;;90.35;38.13;;;1.20;99.90;;;;;;2064539;28;20082;-75
2022/03/04 03:43:26;;;;;;;86.05;36.17;;;1.10;99.90;;;;;;2065254;28;20073;-75
2022/03/04 03:44:27;;;;;;;88.30;38.60;;;1.10;99.90;;;;;;2064995;28;20026;-75
2022/03/04 03:45:28;;;;;;;88.07;37.10;;;1.10;99.90;;;;;;2065083;28;20029;-75
2022/03/04 03:46:31;;;;;;;91.97;37.33;;;1.10;99.90;;;;;;2065366;28;20038;-75
2022/03/04 03:47:32;;;;;;;84.07;36.53;;;1.10;99.90;;;;;;2072359;28;20037;-77
2022/03/04 03:48:32;;;;;;;85.82;36.88;;;1.10;99.90;;;;;;2072729;28;20037;-75
2022/03/04 03:49:33;;;;;;;81.93;35.67;;;1.20;99.90;;;;;;2065080;28;20381;-75
2022/03/04 03:50:34;;;;;;;86.10;36.83;;;1.20;99.90;;;;;;2065088;28;20034;-74
2022/03/04 03:51:34;;;;;;;91.63;36.25;;;1.20;99.90;;;;;;2065425;28;20031;-75
2022/03/04 03:52:36;;;;;;;83.50;35.03;;;1.20;99.90;;;;;;2064693;28;20121;-74
2022/03/04 03:53:37;;;;;;;88.57;37.30;;;1.20;99.90;;;;;;2064587;28;20026;-75
2022/03/04 03:54:38;;;;;;;88.25;35.55;;;1.20;99.90;;;;;;2064527;28;20033;-75
2022/03/04 03:55:38;;;;;;;84.88;36.08;;;1.20;99.90;;;;;;2064376;28;20033;-75
2022/03/04 03:56:39;;;;;;;84.25;35.38;;;1.20;99.90;;;;;;2072693;28;20128;-75
2022/03/04 03:57:40;;;;;;;89.25;36.38;;;1.20;99.90;;;;;;2072527;28;20026;-75
2022/03/04 03:58:40;;;;;;;87.07;37.13;;;1.30;99.90;;;;;;2064638;28;20027;-75
2022/03/04 03:59:41;;;;;;;93.80;37.75;;;1.30;99.90;;;;;;2064475;28;20038;-75
2022/03/04 04:00:42;;;;;;;87.35;35.92;;;1.30;99.90;;;;;;2064249;28;20031;-75
2022/03/04 04:01:42;;;;;;;92.28;36.65;;;1.30;99.90;;;;;;2064665;28;20041;-76
2022/03/04 04:02:43;;;;;;;91.22;36.50;;;1.30;99.90;;;;;;2065341;28;20038;-76
2022/03/04 04:03:44;;;;;;;89.78;37.03;;;1.30;99.90;;;;;;2065320;28;20102;-76
2022/03/04 04:04:46;;;;;;;96.20;37.05;;;1.30;99.90;;;;;;2065102;28;20030;-75
2022/03/04 04:05:47;;;;;;;97.75;37.67;;;1.30;99.90;;;;;;2065430;28;20022;-76
2022/03/04 04:06:47;;;;;;;96.82;37.63;;;1.30;99.90;;;;;;2065233;28;20502;-74
2022/03/04 04:07:48;;;;;;;97.53;37.03;;;1.30;99.90;;;;;;2064829;28;20038;-76
2022/03/04 04:08:48;;;;;;;88.85;35.47;;;1.30;99.90;;;;;;2065299;28;20072;-76
2022/03/04 04:09:49;;;;;;;103.97;39.15;;;1.30;99.90;;;;;;2065274;28;20022;-75
2022/03/04 04:10:50;;;;;;;99.75;38.22;;;1.30;99.90;;;;;;2065015;28;20413;-76
2022/03/04 04:11:50;;;;;;;93.35;37.10;;;1.20;99.90;;;;;;2065155;28;20023;-76
2022/03/04 04:12:51;;;;;;;91.63;36.75;;;1.20;99.90;;;;;;2065287;28;20129;-73
2022/03/04 04:13:52;;;;;;;87.82;35.97;;;1.20;99.90;;;;;;2065370;28;20051;-75
2022/03/04 04:14:52;;;;;;;90.93;35.35;;;1.20;99.90;;;;;;2072360;28;20120;-75
2022/03/04 04:15:53;;;;;;;102.32;38.92;;;1.30;99.90;;;;;;2072463;28;20034;-75
2022/03/04 04:16:55;;;;;;;100.85;38.05;;;1.20;99.90;;;;;;2064892;28;20057;-75
2022/03/04 04:17:56;;;;;;;97.00;37.75;;;1.20;99.90;;;;;;2064800;28;20022;-76
2022/03/04 04:18:57;;;;;;;95.05;37.35;;;1.20;99.90;;;;;;2064913;28;20030;-75
2022/03/04 04:19:58;;;;;;;95.28;37.85;;;1.20;99.90;;;;;;2064853;28;20108;-73
2022/03/04 04:20:58;;;;;;;93.88;36.35;;;1.30;99.90;;;;;;2065094;28;20026;-75
2022/03/04 04:21:59;;;;;;;90.40;35.60;;;1.30;99.90;;;;;;2064942;28;20509;-76
2022/03/04 04:23:00;;;;;;;114.97;39.95;;;1.30;99.90;;;;;;2072203;28;20034;-74
2022/03/04 04:24:01;;;;;;;106.22;40.05;;;1.30;99.90;;;;;;2072294;28;20048;-75
2022/03/04 04:25:02;;;;;;;98.47;39.17;;;1.20;99.90;;;;;;2064757;28;20064;-74
2022/03/04 04:26:05;;;;;;;104.13;39.53;;;1.30;99.90;;;;;;2065026;28;20385;-75
2022/03/04 04:27:06;;;;;;;100.13;38.28;;;1.30;99.90;;;;;;2064173;28;20444;-75
2022/03/04 04:28:06;;;;;;;98.20;37.35;;;1.20;99.90;;;;;;2063589;28;20037;-75
2022/03/04 04:29:07;;;;;;;108.28;39.95;;;1.30;99.90;;;;;;2072349;28;20371;-75
2022/03/04 04:30:08;;;;;;;108.85;39.90;;;1.20;99.90;;;;;;2064692;28;20167;-73
2022/03/04 04:31:09;;;;;;;111.95;40.40;;;1.20;99.90;;;;;;2064331;28;20034;-74
2022/03/04 04:32:09;;;;;;;110.28;39.30;;;1.20;99.90;;;;;;2064207;28;20562;-75
2022/03/04 04:33:10;;;;;;;107.35;38.47;;;1.20;99.90;;;;;;2064742;28;20089;-73
2022/03/04 04:34:10;;;;;;;102.35;37.88;;;1.20;99.90;;;;;;2064406;28;20037;-75
2022/03/04 04:35:11;;;;;;;104.50;39.13;;;1.20;99.90;;;;;;2064820;28;20475;-73
2022/03/04 04:36:12;;;;;;;102.35;39.22;;;1.20;99.90;;;;;;2065946;28;20206;-74
2022/03/04 04:37:16;;;;;;;105.80;39.78;;;1.20;99.90;;;;;;2072759;28;20037;-76
2022/03/04 04:38:20;;;;;;;109.20;38.92;;;1.20;99.90;;;;;;2072286;28;20036;-74
2022/03/04 04:39:21;;;;;;;102.00;39.30;;;1.20;99.90;;;;;;2065045;28;20042;-74
2022/03/04 04:40:24;;;;;;;104.28;39.22;;;1.20;99.90;;;;;;2064498;28;20089;-73
2022/03/04 04:41:24;;;;;;;108.90;39.55;;;1.20;99.90;;;;;;2065145;28;20065;-72
2022/03/04 04:42:25;;;;;;;113.85;39.85;;;1.20;99.90;;;;;;2072513;28;20037;-75
2022/03/04 04:43:26;;;;;;;101.40;38.33;;;1.30;99.90;;;;;;2073150;28;20036;-74
2022/03/04 04:44:27;;;;;;;98.20;36.83;;;1.20;99.90;;;;;;2064966;28;20027;-75
2022/03/04 04:45:27;;;;;;;116.70;40.70;;;1.30;99.90;;;;;;2073049;28;20057;-74
2022/03/04 04:46:28;;;;;;;104.80;38.10;;;1.20;99.90;;;;;;2072787;28;20034;-74
2022/03/04 04:47:29;;;;;;;114.05;38.72;;;1.30;99.90;;;;;;2072923;28;20393;-76
2022/03/04 04:48:30;;;;;;;106.68;38.22;;;1.20;99.90;;;;;;2072583;28;20029;-76
2022/03/04 04:49:34;;;;;;;105.10;38.35;;;1.20;99.90;;;;;;2073141;28;20065;-76
2022/03/04 04:50:34;;;;;;;101.82;38.10;;;1.20;99.90;;;;;;2065266;28;20046;-74
2022/03/04 04:51:35;;;;;;;103.25;36.45;;;1.20;99.90;;;;;;2064636;28;20030;-75
2022/03/04 04:52:36;;;;;;;103.95;38.00;;;1.20;99.90;;;;;;2064350;28;20663;-76
2022/03/04 04:53:38;;;;;;;109.07;37.78;;;1.20;99.90;;;;;;2072301;28;20033;-74
2022/03/04 04:54:38;;;;;;;97.60;36.40;;;1.20;99.90;;;;;;2063792;28;20057;-76
2022/03/04 04:55:40;;;;;;;93.50;36.20;;;1.20;99.90;;;;;;2064311;28;20109;-76
2022/03/04 04:56:40;;;;;;;91.55;35.67;;;1.20;99.90;;;;;;2065518;28;20022;-74
2022/03/04 04:57:41;;;;;;;93.82;35.60;;;1.10;99.90;;;;;;2065013;28;20046;-75
2022/03/04 04:58:42;;;;;;;95.25;34.30;;;1.20;99.90;;;;;;2064801;28;20488;-75
2022/03/04 04:59:42;;;;;;;92.32;35.33;;;1.10;99.90;;;;;;2065046;28;20022;-75
2022/03/04 05:00:43;;;;;;;88.30;33.63;;;1.10;99.90;;;;;;2065128;28;20799;-75
2022/03/04 05:01:44;;;;;;;88.72;34.10;;;1.10;99.90;;;;;;2064695;28;20034;-75
2022/03/04 05:02:44;;;;;;;90.20;34.58;;;1.10;99.90;;;;;;2065023;28;20026;-74
2022/03/04 05:03:45;;;;;;;95.43;35.25;;;1.20;99.90;;;;;;2064195;28;20472;-76
2022/03/04 05:04:47;;;;;;;91.97;34.70;;;1.10;99.90;;;;;;2064339;28;20073;-77
2022/03/04 05:05:48;;;;;;;91.68;33.92;;;1.20;99.90;;;;;;2065067;28;20029;-77
2022/03/04 05:06:49;;;;;;;86.10;33.47;;;1.20;99.90;;;;;;2065192;28;20035;-76
2022/03/04 05:07:49;;;;;;;86.10;32.80;;;1.20;99.90;;;;;;2064629;28;20027;-76
2022/03/04 05:08:50;;;;;;;83.85;33.65;;;1.20;99.90;;;;;;2064259;28;20038;-76
2022/03/04 05:09:51;;;;;;;85.93;32.63;;;1.20;99.90;;;;;;2064211;28;20126;-75
2022/03/04 05:10:51;;;;;;;89.82;32.72;;;1.20;99.90;;;;;;2064993;28;20116;-74
2022/03/04 05:11:52;;;;;;;84.55;33.13;;;1.10;99.90;;;;;;2065254;28;20031;-75
2022/03/04 05:12:53;;;;;;;86.30;33.80;;;1.20;99.90;;;;;;2065163;28;20046;-75